Time;durP1;ratioP1;P1;durP2;ratioP2;P2;SDS_P1;SDS_P2;PMS_P1;PMS_P2;Temp;Humidity;BMP_temperature;BMP_pressure;BME280_temperature;BME280_humidity;BME280_pressure;Samples;Min_cycle;Max_cycle;Signal;HPM_P1;HPM_P2
2021/10/09 00:02:27;;;;;;;95.45;38.33;;;;;;;8.25;100.00;102225.13;4955654;28;20051;-68
2021/10/09 00:04:55;;;;;;;105.28;37.83;;;;;;;8.24;100.00;102219.94;4954480;28;20043;-68
2021/10/09 00:07:23;;;;;;;102.57;40.67;;;;;;;8.30;100.00;102215.97;4955028;28;20113;-68
2021/10/09 00:09:57;;;;;;;90.28;37.67;;;;;;;8.39;100.00;102220.59;4959817;28;20435;-68
2021/10/09 00:12:25;;;;;;;99.88;39.42;;;;;;;8.44;100.00;102226.44;4957485;28;20343;-68
2021/10/09 00:14:53;;;;;;;109.38;41.58;;;;;;;8.60;100.00;102224.34;4957170;28;20043;-68
2021/10/09 00:17:23;;;;;;;106.53;44.45;;;;;;;8.66;100.00;102216.84;4952103;28;20114;-67
2021/10/09 00:19:51;;;;;;;105.30;40.83;;;;;;;8.68;100.00;102228.25;4959083;28;20128;-68
2021/10/09 00:22:19;;;;;;;108.57;43.75;;;;;;;8.66;100.00;102216.84;4956840;28;20404;-68
2021/10/09 00:24:47;;;;;;;107.70;43.03;;;;;;;8.48;100.00;102219.94;4955240;28;20047;-68
2021/10/09 00:27:17;;;;;;;103.55;40.92;;;;;;;8.32;100.00;102222.00;4953187;28;20280;-68
2021/10/09 00:29:45;;;;;;;102.15;39.78;;;;;;;8.08;100.00;102221.06;4955735;28;20094;-68
2021/10/09 00:32:13;;;;;;;96.15;38.92;;;;;;;7.87;100.00;102215.47;4952746;28;20158;-68
2021/10/09 00:34:43;;;;;;;82.20;32.88;;;;;;;7.88;100.00;102219.84;4959721;28;20043;-67
2021/10/09 00:37:12;;;;;;;88.47;35.28;;;;;;;7.86;100.00;102218.25;4954089;28;20050;-67
2021/10/09 00:39:40;;;;;;;88.63;37.42;;;;;;;7.79;100.00;102223.16;4954465;28;20090;-67
2021/10/09 00:42:09;;;;;;;85.32;34.60;;;;;;;7.68;100.00;102215.09;4957023;28;20054;-68
2021/10/09 00:44:39;;;;;;;89.88;37.28;;;;;;;7.71;100.00;102223.72;4955316;28;20046;-70
2021/10/09 00:47:07;;;;;;;117.18;42.55;;;;;;;8.06;100.00;102224.78;4955143;28;20130;-68
2021/10/09 00:49:35;;;;;;;107.28;41.45;;;;;;;7.86;100.00;102221.75;4958180;28;20059;-68
2021/10/09 00:52:05;;;;;;;119.95;43.00;;;;;;;7.76;100.00;102221.56;4955172;28;20066;-68
2021/10/09 00:54:34;;;;;;;110.18;43.70;;;;;;;7.59;100.00;102217.47;4956815;28;20327;-68
2021/10/09 00:57:03;;;;;;;115.05;43.72;;;;;;;7.46;100.00;102221.97;4955788;28;20043;-68
2021/10/09 00:59:31;;;;;;;107.13;41.72;;;;;;;7.54;100.00;102224.06;4957560;28;20284;-67
2021/10/09 01:02:02;;;;;;;114.90;41.42;;;;;;;7.66;100.00;102223.19;4955071;28;20043;-68
2021/10/09 01:04:32;;;;;;;112.22;39.85;;;;;;;7.63;100.00;102235.88;4958444;28;20339;-68
2021/10/09 01:07:01;;;;;;;115.22;43.90;;;;;;;7.62;100.00;102237.66;4955602;28;20109;-68
2021/10/09 01:09:29;;;;;;;94.55;37.38;;;;;;;7.48;100.00;102232.47;4953442;28;20347;-68
2021/10/09 01:11:56;;;;;;;134.88;39.45;;;;;;;7.21;100.00;102231.63;4955015;28;20125;-68
2021/10/09 01:14:24;;;;;;;100.72;36.92;;;;;;;7.26;100.00;102239.31;4957361;28;20047;-68
2021/10/09 01:16:53;;;;;;;84.55;34.80;;;;;;;7.16;100.00;102239.09;4957004;28;20048;-70
2021/10/09 01:19:22;;;;;;;86.05;33.70;;;;;;;6.99;100.00;102223.44;4959893;28;20058;-68
2021/10/09 01:21:52;;;;;;;95.75;36.58;;;;;;;7.08;100.00;102233.44;4957200;28;20047;-68
2021/10/09 01:24:20;;;;;;;89.40;34.45;;;;;;;7.04;100.00;102234.63;4961329;28;20109;-68
2021/10/09 01:26:48;;;;;;;105.38;34.50;;;;;;;6.88;100.00;102232.16;4958612;28;20047;-67
2021/10/09 01:29:17;;;;;;;97.47;35.83;;;;;;;6.81;100.00;102237.03;4958237;28;20342;-67
2021/10/09 01:31:45;;;;;;;125.45;39.72;;;;;;;6.83;100.00;102237.78;4962660;28;20034;-67
2021/10/09 01:34:13;;;;;;;111.55;39.03;;;;;;;6.79;100.00;102232.78;4960831;28;20039;-67
2021/10/09 01:36:41;;;;;;;124.30;40.20;;;;;;;6.81;100.00;102230.88;4956098;28;20311;-67
2021/10/09 01:39:14;;;;;;;118.35;40.85;;;;;;;6.94;100.00;102231.72;4961896;28;20403;-67
2021/10/09 01:41:46;;;;;;;140.00;46.95;;;;;;;7.06;100.00;102232.72;4961384;28;20053;-68
2021/10/09 01:44:15;;;;;;;125.78;46.10;;;;;;;7.29;100.00;102235.59;4956790;28;20442;-67
2021/10/09 01:46:44;;;;;;;146.20;48.00;;;;;;;7.33;100.00;102229.94;4961301;28;20051;-67
2021/10/09 01:49:11;;;;;;;139.57;48.80;;;;;;;7.30;100.00;102223.97;4961041;28;20047;-67
2021/10/09 01:51:39;;;;;;;139.48;47.65;;;;;;;7.44;100.00;102223.84;4958441;28;20079;-67
2021/10/09 01:54:07;;;;;;;153.82;51.13;;;;;;;7.52;100.00;102228.66;4956520;28;20043;-67
2021/10/09 01:56:39;;;;;;;151.93;48.90;;;;;;;7.63;100.00;102225.25;4955803;28;20055;-67
2021/10/09 01:59:07;;;;;;;177.82;56.35;;;;;;;7.50;100.00;102228.75;4958114;28;20522;-67
2021/10/09 02:01:35;;;;;;;155.75;53.28;;;;;;;7.34;100.00;102229.00;4959163;28;20526;-67
2021/10/09 02:04:04;;;;;;;182.07;54.10;;;;;;;7.21;100.00;102223.66;4961451;28;20042;-67
2021/10/09 02:06:32;;;;;;;133.32;47.15;;;;;;;7.09;100.00;102226.31;4962537;28;20308;-67
2021/10/09 02:09:00;;;;;;;161.65;49.20;;;;;;;6.85;100.00;102216.44;4961372;28;20265;-67
2021/10/09 02:11:36;;;;;;;148.38;47.90;;;;;;;6.79;100.00;102217.72;4959341;28;20046;-67
2021/10/09 02:14:10;;;;;;;;;;;;;;;6.98;100.00;102216.44;4956091;28;20094;-68
2021/10/09 02:25:02;;;;;;;136.90;46.30;;;;;;;7.06;100.00;102214.13;4976287;28;20046;-69
2021/10/09 02:27:30;;;;;;;142.70;47.33;;;;;;;7.05;100.00;102212.41;4969058;28;20101;-69
2021/10/09 02:29:59;;;;;;;153.25;49.38;;;;;;;7.19;100.00;102214.97;4972284;28;20054;-69
2021/10/09 02:32:27;;;;;;;153.65;49.03;;;;;;;7.24;100.00;102207.53;4962003;28;20059;-69
2021/10/09 02:34:56;;;;;;;165.57;50.05;;;;;;;7.15;100.00;102209.97;4973051;28;20043;-69
2021/10/09 02:37:24;;;;;;;161.25;50.60;;;;;;;7.13;100.00;102215.41;4968662;28;20047;-68
2021/10/09 02:39:52;;;;;;;218.43;58.58;;;;;;;7.22;100.00;102209.44;4972884;28;20046;-68
2021/10/09 02:42:22;;;;;;;199.75;56.97;;;;;;;7.11;100.00;102205.81;4969141;28;20268;-68
2021/10/09 02:44:50;;;;;;;198.50;58.25;;;;;;;7.11;100.00;102206.66;4976582;28;20043;-68
2021/10/09 02:47:19;;;;;;;255.30;60.33;;;;;;;7.13;100.00;102198.59;4969715;28;20109;-68
2021/10/09 02:49:47;;;;;;;206.70;58.40;;;;;;;6.85;100.00;102196.03;4967974;28;20402;-68
2021/10/09 02:52:15;;;;;;;190.68;54.25;;;;;;;6.62;100.00;102199.41;4971622;28;20092;-68
2021/10/09 02:54:43;;;;;;;202.90;55.53;;;;;;;6.44;100.00;102199.69;4971272;28;20370;-68
2021/10/09 02:57:12;;;;;;;158.75;47.40;;;;;;;6.41;100.00;102194.59;4974329;28;20031;-69
2021/10/09 02:59:40;;;;;;;260.35;60.90;;;;;;;6.42;100.00;102198.94;4965452;28;20098;-69
2021/10/09 03:02:07;;;;;;;149.63;45.83;;;;;;;6.31;100.00;102196.16;4971935;28;20047;-68
2021/10/09 03:04:37;;;;;;;148.15;48.90;;;;;;;6.41;100.00;102197.25;4964996;28;20062;-69
2021/10/09 03:07:06;;;;;;;226.43;58.55;;;;;;;6.63;100.00;102191.31;4968861;28;20114;-69
2021/10/09 03:09:34;;;;;;;223.55;53.85;;;;;;;6.70;100.00;102191.78;4971048;28;20353;-68
2021/10/09 03:12:01;;;;;;;225.38;55.45;;;;;;;6.57;100.00;102191.75;4975502;28;20039;-69
2021/10/09 03:14:29;;;;;;;241.77;59.35;;;;;;;6.70;100.00;102189.13;4970214;28;20066;-68
2021/10/09 03:16:57;;;;;;;185.95;52.42;;;;;;;6.74;100.00;102185.31;4969021;28;20065;-69
2021/10/09 03:19:25;;;;;;;155.63;49.33;;;;;;;6.66;100.00;102185.84;4970535;28;20042;-68
2021/10/09 03:21:54;;;;;;;151.70;46.85;;;;;;;6.55;100.00;102189.19;4973206;28;20394;-68
2021/10/09 03:24:22;;;;;;;123.97;41.42;;;;;;;6.29;100.00;102190.94;4969056;28;20051;-68
2021/10/09 03:26:50;;;;;;;223.32;52.28;;;;;;;5.97;100.00;102187.72;4973790;28;20039;-69
2021/10/09 03:29:18;;;;;;;171.40;43.90;;;;;;;5.72;100.00;102191.94;4968252;28;20051;-69
2021/10/09 03:31:46;;;;;;;327.30;51.92;;;;;;;5.54;100.00;102191.28;4971296;28;20057;-69
2021/10/09 03:34:14;;;;;;;365.48;63.35;;;;;;;5.56;100.00;102199.16;4970655;28;20042;-69
2021/10/09 03:36:42;;;;;;;316.75;57.33;;;;;;;5.79;100.00;102193.25;4971201;28;20323;-69
2021/10/09 03:39:14;;;;;;;566.88;95.28;;;;;;;5.97;100.00;102193.03;4969285;28;20047;-68
2021/10/09 03:41:45;;;;;;;568.85;93.97;;;;;;;5.90;100.00;102197.00;4974041;28;20101;-69
2021/10/09 03:44:13;;;;;;;116.15;40.70;;;;;;;5.82;100.00;102193.03;4975144;28;20094;-68
2021/10/09 03:46:43;;;;;;;224.82;47.03;;;;;;;5.67;100.00;102194.03;4973092;28;20035;-68
2021/10/09 03:49:22;;;;;;;504.30;82.93;;;;;;;5.72;100.00;102197.25;4968475;28;20457;-68
2021/10/09 03:54:36;;;;;;;269.20;53.72;;;;;;;5.82;100.00;102201.00;4968831;28;20046;-68
2021/10/09 03:57:05;;;;;;;411.40;74.47;;;;;;;5.72;100.00;102188.44;4974056;28;20038;-68
2021/10/09 03:59:33;;;;;;;127.75;42.92;;;;;;;5.81;100.00;102195.78;4968991;28;20102;-68
2021/10/09 04:02:01;;;;;;;240.02;55.67;;;;;;;5.98;100.00;102197.41;4960291;28;20047;-70
2021/10/09 04:04:29;;;;;;;233.23;60.60;;;;;;;6.19;100.00;102197.81;4958577;28;20055;-70
2021/10/09 04:06:57;;;;;;;670.78;111.80;;;;;;;6.28;100.00;102193.69;4957888;28;20072;-70
2021/10/09 04:09:25;;;;;;;494.98;91.80;;;;;;;6.17;100.00;102195.25;4953931;28;20524;-70
2021/10/09 04:11:54;;;;;;;142.07;45.92;;;;;;;5.99;100.00;102193.81;4960802;28;20105;-70
2021/10/09 04:14:22;;;;;;;111.95;41.15;;;;;;;6.05;100.00;102201.34;4954032;28;20344;-70
2021/10/09 04:16:50;;;;;;;125.43;40.08;;;;;;;5.96;100.00;102200.13;4958180;28;20051;-70
2021/10/09 04:19:17;;;;;;;115.72;42.17;;;;;;;5.99;100.00;102196.44;4953876;28;20058;-72
2021/10/09 04:21:45;;;;;;;159.45;41.90;;;;;;;5.93;100.00;102204.78;4954120;28;20043;-71
2021/10/09 04:24:15;;;;;;;400.27;75.82;;;;;;;5.70;100.00;102191.19;4958516;28;20047;-71
2021/10/09 04:26:42;;;;;;;170.88;39.05;;;;;;;5.56;100.00;102199.16;4952784;28;20046;-71
2021/10/09 04:29:12;;;;;;;148.18;44.65;;;;;;;5.84;100.00;102199.13;4955836;28;20058;-71
2021/10/09 04:31:40;;;;;;;187.73;51.13;;;;;;;5.93;100.00;102197.66;4954094;28;20067;-72
2021/10/09 04:34:07;;;;;;;135.18;44.88;;;;;;;5.86;100.00;102191.91;4959288;28;20050;-72
2021/10/09 04:36:35;;;;;;;370.30;69.47;;;;;;;5.51;100.00;102197.66;4957906;28;20098;-71
2021/10/09 04:39:03;;;;;;;106.97;33.50;;;;;;;5.29;100.00;102190.19;4955323;28;20050;-72
2021/10/09 04:41:31;;;;;;;89.35;28.95;;;;;;;5.04;100.00;102188.19;4957136;28;20128;-72
2021/10/09 04:43:59;;;;;;;97.10;29.77;;;;;;;4.86;100.00;102186.66;4957143;28;20344;-72
2021/10/09 04:46:28;;;;;;;84.90;30.27;;;;;;;4.87;100.00;102189.22;4953293;28;20326;-73
2021/10/09 04:48:57;;;;;;;201.43;44.13;;;;;;;4.82;100.00;102189.50;4958584;28;20043;-73
2021/10/09 04:51:25;;;;;;;76.65;28.60;;;;;;;4.81;100.00;102186.94;4956945;28;20070;-72
2021/10/09 04:53:53;;;;;;;313.58;52.55;;;;;;;4.89;100.00;102195.28;4961904;28;21726;-71
2021/10/09 04:56:21;;;;;;;161.07;42.88;;;;;;;5.02;100.00;102195.41;4959273;28;20194;-71
2021/10/09 04:58:49;;;;;;;359.38;70.70;;;;;;;4.98;100.00;102194.72;4961013;28;20395;-71
2021/10/09 05:01:17;;;;;;;158.35;39.35;;;;;;;4.91;100.00;102193.38;4959198;28;20054;-71
2021/10/09 05:03:46;;;;;;;71.10;30.50;;;;;;;4.86;100.00;102198.09;4960591;28;20071;-71
2021/10/09 05:06:14;;;;;;;99.65;30.20;;;;;;;4.78;100.00;102187.97;4955168;28;20102;-71
2021/10/09 05:08:42;;;;;;;73.72;28.60;;;;;;;4.86;100.00;102192.78;4957330;28;20047;-71
2021/10/09 05:11:10;;;;;;;187.73;41.40;;;;;;;4.84;100.00;102197.34;4957326;28;20626;-71
2021/10/09 05:13:38;;;;;;;138.63;37.53;;;;;;;4.81;100.00;102190.44;4964092;28;20055;-71
2021/10/09 05:16:06;;;;;;;125.85;37.05;;;;;;;5.01;100.00;102193.69;4952982;28;20393;-71
2021/10/09 05:18:34;;;;;;;170.18;39.25;;;;;;;5.13;100.00;102192.06;4955767;28;20638;-72
2021/10/09 05:21:03;;;;;;;86.38;31.58;;;;;;;5.06;100.00;102196.91;4961066;28;20043;-70
2021/10/09 05:23:32;;;;;;;173.73;41.70;;;;;;;5.06;100.00;102196.03;4959488;28;20045;-71
2021/10/09 05:26:00;;;;;;;174.10;44.28;;;;;;;5.26;100.00;102202.75;4959596;28;20042;-71
2021/10/09 05:28:35;;;;;;;178.48;46.35;;;;;;;5.37;100.00;102200.31;4958748;28;20109;-70
2021/10/09 05:31:03;;;;;;;;;;;;;;;5.41;100.00;102206.28;4955524;28;20039;-71
2021/10/09 05:33:38;;;;;;;378.77;78.10;;;;;;;5.40;100.00;102210.72;4954632;28;20005;-71
2021/10/09 05:36:07;;;;;;;122.43;35.50;;;;;;;5.35;100.00;102207.50;4953627;28;20087;-71
2021/10/09 05:38:35;;;;;;;100.88;34.97;;;;;;;5.29;100.00;102207.91;4958329;28;20081;-70
2021/10/09 05:41:04;;;;;;;132.82;37.78;;;;;;;5.28;100.00;102212.31;4956377;28;20055;-70
2021/10/09 05:43:32;;;;;;;170.05;42.67;;;;;;;5.35;100.00;102210.16;4959128;28;20055;-70
2021/10/09 05:46:00;;;;;;;296.85;61.97;;;;;;;5.32;100.00;102213.00;4957512;28;20039;-70
2021/10/09 05:48:28;;;;;;;137.38;40.28;;;;;;;5.30;100.00;102213.09;4960924;28;20125;-71
2021/10/09 05:51:01;;;;;;;379.63;75.05;;;;;;;5.34;100.00;102217.25;4954226;28;20134;-71
2021/10/09 05:53:46;;;;;;;68.45;32.08;;;;;;;5.51;100.00;102213.56;4961803;28;20043;-71
2021/10/09 05:56:21;;;;;;;118.80;38.03;;;;;;;5.43;100.00;102212.31;4958166;28;20043;-70
2021/10/09 05:58:55;;;;;;;;;;;;;;;5.62;100.00;102219.97;4960857;28;20055;-70
2021/10/09 06:49:08;;;;;;;164.45;47.05;;;;;;;7.18;100.00;102250.44;4954078;28;20035;-71
2021/10/09 06:59:59;;;;;;;152.05;44.95;;;;;;;7.17;100.00;102254.09;4955331;28;20055;-71
2021/10/09 07:02:26;;;;;;;163.82;46.90;;;;;;;7.22;100.00;102257.25;4959058;28;20046;-71
2021/10/09 07:04:54;;;;;;;143.50;44.50;;;;;;;7.21;100.00;102263.50;4958396;28;20046;-72
2021/10/09 07:07:22;;;;;;;184.70;47.42;;;;;;;7.26;100.00;102260.56;4954479;28;20063;-72
2021/10/09 07:09:50;;;;;;;158.65;47.53;;;;;;;7.29;100.00;102257.69;4958169;28;20059;-71
2021/10/09 07:12:18;;;;;;;164.90;49.65;;;;;;;7.18;100.00;102261.06;4957294;28;20109;-71
2021/10/09 07:14:46;;;;;;;163.10;45.00;;;;;;;7.13;100.00;102251.72;4958183;28;20129;-72
2021/10/09 07:17:16;;;;;;;142.27;46.13;;;;;;;7.19;100.00;102260.13;4956734;28;20370;-71
2021/10/09 07:19:44;;;;;;;162.70;45.78;;;;;;;7.28;100.00;102257.78;4954595;28;20517;-71
2021/10/09 07:22:12;;;;;;;146.10;44.28;;;;;;;7.16;100.00;102248.84;4958842;28;20043;-70
2021/10/09 07:25:00;;;;;;;128.50;41.08;;;;;;;7.05;100.00;102249.59;4956920;28;20106;-70
2021/10/09 07:27:28;;;;;;;159.27;41.33;;;;;;;7.06;100.00;102236.22;4954256;28;20402;-70
2021/10/09 07:29:56;;;;;;;171.00;45.13;;;;;;;7.11;100.00;102243.03;4959130;28;20316;-72
2021/10/09 07:32:26;;;;;;;160.23;43.95;;;;;;;7.13;100.00;102235.78;4955331;28;20434;-72
2021/10/09 07:34:53;;;;;;;122.45;44.25;;;;;;;7.16;100.00;102243.53;4962409;28;20098;-74
2021/10/09 07:37:22;;;;;;;140.50;44.25;;;;;;;7.19;100.00;102244.19;4954025;28;20058;-74
2021/10/09 07:39:50;;;;;;;152.23;48.47;;;;;;;7.44;100.00;102234.50;4954961;28;20047;-72
2021/10/09 07:42:18;;;;;;;181.13;49.25;;;;;;;7.55;100.00;102242.56;4957879;28;20054;-73
2021/10/09 07:44:46;;;;;;;180.57;48.22;;;;;;;7.64;100.00;102248.19;4956393;28;20042;-74
2021/10/09 07:47:14;;;;;;;138.82;42.38;;;;;;;7.54;100.00;102245.31;4950425;28;20051;-71
2021/10/09 07:49:43;;;;;;;159.85;45.05;;;;;;;7.49;100.00;102232.38;4958283;28;20043;-71
2021/10/09 07:52:11;;;;;;;162.93;44.85;;;;;;;7.58;100.00;102237.03;4956236;28;20050;-71
2021/10/09 07:54:39;;;;;;;144.75;44.47;;;;;;;7.65;100.00;102242.75;4959160;28;20046;-71
2021/10/09 07:57:07;;;;;;;159.38;47.58;;;;;;;7.73;100.00;102242.22;4956233;28;20043;-70
2021/10/09 07:59:35;;;;;;;142.40;45.17;;;;;;;7.94;100.00;102242.50;4957116;28;20043;-70
2021/10/09 08:02:04;;;;;;;124.47;45.78;;;;;;;8.23;100.00;102251.00;4959967;28;20045;-70
2021/10/09 08:04:33;;;;;;;162.18;47.45;;;;;;;8.35;100.00;102240.41;4959334;28;20043;-71
2021/10/09 08:07:02;;;;;;;237.77;54.17;;;;;;;8.52;100.00;102248.03;4958079;28;20062;-70
2021/10/09 08:09:33;;;;;;;138.35;44.53;;;;;;;8.48;100.00;102249.22;4957496;28;20062;-71
2021/10/09 08:12:01;;;;;;;154.80;46.88;;;;;;;8.53;100.00;102249.72;4960010;28;20055;-70
2021/10/09 08:14:29;;;;;;;137.52;45.92;;;;;;;8.69;100.00;102253.88;4960623;28;20465;-71
2021/10/09 08:16:57;;;;;;;135.30;47.55;;;;;;;8.87;100.00;102247.16;4955596;28;20059;-71
2021/10/09 08:19:25;;;;;;;358.27;72.30;;;;;;;9.17;100.00;102248.47;4960247;28;20358;-71
2021/10/09 08:21:54;;;;;;;172.13;47.40;;;;;;;9.27;100.00;102243.25;4955607;28;20252;-71
2021/10/09 08:24:30;;;;;;;127.82;41.00;;;;;;;9.15;100.00;102247.72;4955731;28;20389;-71
2021/10/09 08:35:32;;;;;;;100.60;36.10;;;;;;;9.51;100.00;102244.97;4961791;28;20122;-71
2021/10/09 08:40:48;;;;;;;104.40;38.95;;;;;;;10.04;100.00;102245.16;4958756;28;20051;-71
2021/10/09 08:43:16;;;;;;;93.63;36.85;;;;;;;9.86;100.00;102242.16;4963635;28;20042;-70
2021/10/09 08:45:46;;;;;;;91.35;34.78;;;;;;;10.10;100.00;102235.78;4956150;28;20076;-70
2021/10/09 08:48:16;;;;;;;82.97;35.20;;;;;;;10.27;100.00;102237.91;4959154;28;20039;-70
2021/10/09 08:50:45;;;;;;;73.47;32.88;;;;;;;10.17;100.00;102239.66;4956624;28;20059;-70
2021/10/09 08:53:13;;;;;;;68.78;32.42;;;;;;;10.12;100.00;102244.50;4956780;28;20454;-70
2021/10/09 08:55:45;;;;;;;64.80;30.58;;;;;;;10.28;100.00;102239.63;4956668;28;20043;-70
2021/10/09 09:01:21;;;;;;;62.65;30.45;;;;;;;10.38;100.00;102236.25;5070591;27;20845;-71
2021/10/09 09:04:14;;;;;;;63.53;30.80;;;;;;;10.72;100.00;102241.41;5070771;28;20044;-71
2021/10/09 09:26:51;;;;;;;40.20;23.00;;;;;;;11.26;100.00;102237.69;5071115;28;20464;-70
2021/10/09 09:35:16;;;;;;;50.30;24.98;;;;;;;12.43;100.00;102228.28;5068832;28;20060;-70
2021/10/09 09:40:38;;;;;;;37.92;20.90;;;;;;;12.78;100.00;102224.19;5071460;28;20048;-70
2021/10/09 09:43:07;;;;;;;38.20;21.73;;;;;;;13.17;100.00;102216.03;5068101;28;20032;-70
2021/10/09 09:45:36;;;;;;;39.92;21.80;;;;;;;13.17;100.00;102211.53;5065572;28;20040;-70
2021/10/09 09:48:05;;;;;;;39.30;21.92;;;;;;;13.19;100.00;102214.06;5069043;28;20036;-70
2021/10/09 09:50:36;;;;;;;36.65;20.63;;;;;;;13.60;100.00;102211.94;5067072;28;20040;-70
2021/10/09 09:53:06;;;;;;;43.95;21.92;;;;;;;13.73;100.00;102211.59;5066392;28;20121;-68
2021/10/09 09:55:34;;;;;;;33.92;20.58;;;;;;;13.98;100.00;102212.72;5067752;28;20044;-69
2021/10/09 09:58:23;;;;;;;39.92;21.60;;;;;;;14.44;100.00;102199.19;5080693;28;20085;-69
2021/10/09 10:00:54;;;;;;;35.75;20.02;;;;;;;14.83;100.00;102198.00;5081769;28;20313;-70
2021/10/09 10:03:24;;;;;;;36.13;20.50;;;;;;;14.49;100.00;102196.03;5071152;28;20115;-68
2021/10/09 10:05:53;;;;;;;37.83;20.88;;;;;;;14.96;100.00;102193.06;5070713;28;20052;-68
2021/10/09 10:08:21;;;;;;;32.50;18.70;;;;;;;14.93;100.00;102202.28;5070012;28;20043;-68
2021/10/09 10:10:51;;;;;;;31.25;17.77;;;;;;;15.12;100.00;102205.75;5068892;28;20049;-68
2021/10/09 10:13:19;;;;;;;33.55;19.08;;;;;;;15.17;100.00;102200.75;5058384;28;20041;-68
2021/10/09 10:15:50;;;;;;;32.55;18.95;;;;;;;15.67;100.00;102202.63;5060383;28;20079;-68
2021/10/09 10:18:48;;;;;;;31.05;18.70;;;;;;;15.37;100.00;102193.28;5058530;28;20083;-68
2021/10/09 10:21:18;;;;;;;37.67;19.08;;;;;;;15.45;100.00;102197.84;5059837;28;20041;-68
2021/10/09 10:23:47;;;;;;;36.00;19.80;;;;;;;15.53;100.00;102200.56;5059982;28;20049;-68
2021/10/09 10:26:31;;;;;;;30.95;17.85;;;;;;;16.00;100.00;102197.41;5056100;28;20086;-69
2021/10/09 10:29:21;;;;;;;37.00;20.30;;;;;;;16.05;100.00;102202.28;5055571;28;20140;-67
2021/10/09 10:32:08;;;;;;;34.35;19.27;;;;;;;15.94;100.00;102206.13;5056912;28;20045;-68
2021/10/09 10:34:36;;;;;;;35.40;19.60;;;;;;;15.96;100.00;102206.81;5058183;28;20052;-68
2021/10/09 10:37:07;;;;;;;35.03;20.27;;;;;;;16.37;100.00;102211.41;5052472;28;20048;-67
2021/10/09 10:39:39;;;;;;;34.55;20.75;;;;;;;16.44;100.00;102201.63;5059176;28;20052;-67
2021/10/09 10:42:26;;;;;;;37.25;21.45;;;;;;;16.66;100.00;102204.66;5056103;28;20052;-67
2021/10/09 10:47:54;;;;;;;31.98;18.45;;;;;;;16.58;100.00;102189.31;5055047;28;20060;-68
2021/10/09 10:50:56;;;;;;;36.67;20.10;;;;;;;16.97;100.00;102198.59;5056505;28;20044;-68
2021/10/09 10:54:29;;;;;;;32.20;17.80;;;;;;;17.03;100.00;102197.91;5054467;28;20045;-69
2021/10/09 10:57:22;;;;;;;29.83;18.23;;;;;;;17.67;100.00;102189.69;5053239;28;20041;-68
2021/10/09 10:59:59;;;;;;;34.75;20.02;;;;;;;17.75;100.00;102186.13;5050375;28;20056;-69
2021/10/09 11:02:29;;;;;;;35.58;18.60;;;;;;;17.61;100.00;102185.03;5057780;28;20841;-70
2021/10/09 11:04:59;;;;;;;31.55;17.58;;;;;;;17.84;100.00;102187.75;5057323;28;20044;-68
2021/10/09 11:07:28;;;;;;;34.83;18.67;;;;;;;17.56;100.00;102182.00;5056773;28;20329;-68
2021/10/09 11:10:06;;;;;;;34.97;20.20;;;;;;;17.78;100.00;102191.19;5057146;28;20167;-68
2021/10/09 11:12:35;;;;;;;35.88;19.83;;;;;;;17.44;100.00;102176.16;5053579;28;20044;-68
2021/10/09 11:15:17;;;;;;;30.80;17.70;;;;;;;17.66;100.00;102182.66;5058836;28;20109;-69
2021/10/09 11:17:48;;;;;;;33.53;18.73;;;;;;;17.91;100.00;102178.97;5054187;28;20087;-68
2021/10/09 11:20:23;;;;;;;30.67;18.48;;;;;;;18.39;100.00;102174.22;5056795;28;20048;-68
2021/10/09 11:22:51;;;;;;;;;;;;;;;18.49;100.00;102172.09;5059034;28;20516;-69
2021/10/09 11:25:29;;;;;;;28.73;18.13;;;;;;;19.54;100.00;102170.28;5055131;28;20302;-68
2021/10/09 11:27:59;;;;;;;34.17;18.00;;;;;;;18.65;100.00;102172.97;5057276;28;20079;-69
2021/10/09 11:30:28;;;;;;;29.63;16.95;;;;;;;18.70;100.00;102167.88;5052197;28;20036;-68
2021/10/09 11:32:57;;;;;;;25.42;16.25;;;;;;;18.86;100.00;102173.09;5057364;28;20478;-69
2021/10/09 11:35:33;;;;;;;34.03;19.02;;;;;;;18.84;100.00;102174.28;5058371;28;20043;-68
2021/10/09 11:38:03;;;;;;;31.02;17.73;;;;;;;19.08;100.00;102167.78;5058816;28;20053;-68
2021/10/09 11:40:38;;;;;;;29.30;17.38;;;;;;;19.57;100.00;102163.66;5058264;28;20119;-68
2021/10/09 11:43:16;;;;;;;25.73;14.35;;;;;;;19.12;100.00;102163.69;5054748;28;20487;-68
2021/10/09 11:54:22;;;;;;;24.75;14.52;;;;;;;20.10;100.00;102156.13;5055399;28;20086;-68
2021/10/09 11:56:52;;;;;;;25.58;14.02;;;;;;;19.94;100.00;102157.19;5057902;28;20044;-68
2021/10/09 11:59:36;;;;;;;24.58;12.30;;;;;;;20.24;100.00;102164.34;5057474;28;20423;-68
2021/10/09 12:02:05;;;;;;;26.67;13.10;;;;;;;20.72;100.00;102155.59;5056546;28;20053;-68
2021/10/09 12:04:34;;;;;;;23.60;12.55;;;;;;;20.10;100.00;102158.81;5058277;28;20045;-68
2021/10/09 12:07:08;;;;;;;21.20;13.38;;;;;;;20.27;100.00;102159.41;5057313;28;20134;-68
2021/10/09 12:09:38;;;;;;;22.17;13.30;;;;;;;20.24;100.00;102154.38;5057268;28;20040;-68
2021/10/09 12:12:16;;;;;;;21.73;13.48;;;;;;;20.08;100.00;102165.47;5055685;28;20040;-68
2021/10/09 12:14:44;;;;;;;24.50;14.15;;;;;;;20.15;100.00;102155.53;5056529;28;20044;-68
2021/10/09 12:17:13;;;;;;;24.80;12.18;;;;;;;20.12;100.00;102164.06;5055271;28;20049;-67
2021/10/09 12:19:41;;;;;;;21.42;13.20;;;;;;;20.79;100.00;102156.47;5055038;28;20040;-68
2021/10/09 12:22:11;;;;;;;28.05;14.15;;;;;;;21.52;100.00;102150.59;5051565;28;20048;-68
2021/10/09 12:24:46;;;;;;;23.27;13.30;;;;;;;21.20;100.00;102147.50;5054019;28;20229;-68
2021/10/09 12:27:17;;;;;;;25.38;14.77;;;;;;;19.80;100.00;102152.66;5052805;28;20094;-68
2021/10/09 12:30:01;;;;;;;23.25;13.45;;;;;;;20.09;100.00;102143.59;5053038;28;20091;-68
2021/10/09 12:32:29;;;;;;;21.98;14.07;;;;;;;19.85;100.00;102144.81;5052085;28;20106;-68
2021/10/09 12:35:06;;;;;;;26.33;14.75;;;;;;;20.67;100.00;102149.88;5054166;28;20047;-68
2021/10/09 12:37:35;;;;;;;28.45;13.73;;;;;;;20.69;100.00;102140.53;5056030;28;20044;-67
2021/10/09 12:40:12;;;;;;;24.33;13.10;;;;;;;22.07;100.00;102133.34;5054018;28;20045;-67
2021/10/09 12:42:48;;;;;;;24.48;12.55;;;;;;;22.18;100.00;102138.16;5058118;28;20518;-68
2021/10/09 12:45:17;;;;;;;21.75;13.27;;;;;;;21.28;100.00;102132.94;5056228;28;20045;-68
2021/10/09 12:47:55;;;;;;;29.02;14.98;;;;;;;20.54;100.00;102135.19;5053575;28;20083;-67
2021/10/09 12:50:23;;;;;;;23.63;13.23;;;;;;;21.13;100.00;102130.34;5060067;28;20040;-68
2021/10/09 12:52:53;;;;;;;22.88;13.00;;;;;;;21.66;100.00;102130.56;5060270;28;20170;-68
2021/10/09 12:55:22;;;;;;;27.15;14.50;;;;;;;21.11;100.00;102127.81;5055687;28;20032;-68
2021/10/09 12:57:53;;;;;;;25.02;14.68;;;;;;;21.35;100.00;102128.34;5055091;28;20044;-68
2021/10/09 13:00:23;;;;;;;23.55;13.25;;;;;;;21.91;100.00;102121.81;5052559;28;20314;-68
2021/10/09 13:02:52;;;;;;;19.92;12.32;;;;;;;20.97;100.00;102123.38;5057310;28;20365;-68
2021/10/09 13:05:20;;;;;;;25.02;13.60;;;;;;;20.81;100.00;102117.22;5056214;28;20080;-68
2021/10/09 13:07:49;;;;;;;23.35;13.45;;;;;;;20.80;100.00;102120.16;5054569;28;20040;-68
2021/10/09 13:10:18;;;;;;;18.55;11.02;;;;;;;21.04;100.00;102120.69;5057707;28;20045;-68
2021/10/09 13:12:46;;;;;;;15.60;10.23;;;;;;;20.22;100.00;102118.44;5053945;28;20305;-68
2021/10/09 13:15:18;;;;;;;16.25;9.65;;;;;;;21.54;100.00;102126.75;5053776;28;20055;-67
2021/10/09 13:17:48;;;;;;;18.27;10.80;;;;;;;21.86;100.00;102118.03;5053195;28;20393;-68
2021/10/09 13:20:16;;;;;;;22.30;11.73;;;;;;;22.64;100.00;102115.53;5054270;28;20057;-68
2021/10/09 13:22:45;;;;;;;17.75;10.65;;;;;;;22.97;100.00;102111.06;5056396;28;20037;-68